• Join FlightAware (Why Join?)
  • Login
  • US Flag 
02:47AM EST


 

Airport Tracker/Info


-or-


 

Live Flight TrackerFlight Track Log ✈ EJM826 ✈ 04-Oct-2013 ✈ KVCT - KLBB

Flight Track Log - Related Links

Times and Time Zones

All times are in EDT time to prevent confusion due to time zone crossing. See the EJM826 flight status page for this flight to view local times or setup timezone preferences in your user account.

Time Position Orientation Groundspeed Altitude Reporting Facility
EDT Latitude Longitude Course Direction KTS MPH feet Rate Location/Type
03:57PM 28.8761 -96.8906 319° Northwest 210 242 2,800  Level Houston Center
03:58PM 28.9389 -96.9475 322° Northwest 226 260 4,500 1,980 Climbing Houston Center
04:00PM 28.9989 -97.0058 320° Northwest 263 303 7,000 2,220 Climbing Houston Center
04:01PM 29.0603 -97.0661 319° Northwest 282 325 9,100 1,920 Climbing Houston Center
04:02PM 29.1244 -97.1281 320° Northwest 294 338 11,100 1,680 Climbing Houston Center
04:03PM 29.1894 -97.1925 319° Northwest 301 346 12,700 1,620 Climbing Houston Center
04:04PM 29.2777 -97.3253 319° Northwest  Level Estimated
04:04PM 29.2575 -97.2572 320° Northwest 313 360 14,500  Level Houston Center
04:05PM 29.3261 -97.3233 320° Northwest 318 366 16,200 1,620 Climbing Houston Center
04:06PM 29.4122 -97.4075 320° Northwest 333 383 17,900 1,500 Climbing Houston Center
04:07PM 29.4836 -97.4783 319° Northwest 338 389 19,400 1,320 Climbing Houston Center
04:08PM 29.5572 -97.5500 320° Northwest 344 396 20,700 1,200 Climbing Houston Center
04:09PM 29.6325 -97.6247 319° Northwest 353 406 21,900 1,080 Climbing Houston Center
04:10PM 29.7092 -97.6986 320° Northwest 357 411 23,000 1,140 Climbing Houston Center
04:11PM 29.7867 -97.7769 319° Northwest 367 422 24,300 1,200 Climbing Houston Center
04:12PM 29.8781 -97.8672 319° Northwest 371 427 25,600 1,080 Climbing Houston Center
04:13PM 29.9647 -97.9522 320° Northwest 378 435 26,600 960 Climbing Houston Center
04:14PM 30.0461 -98.0336 319° Northwest 386 444 27,600 1,020 Climbing Houston Center
04:15PM 30.1336 -98.1222 319° Northwest 390 449 28,800 960 Climbing Houston Center
04:16PM 30.2006 -98.2211 308° West 391 450 29,700 900 Climbing Houston Center
04:17PM 30.2742 -98.3261 309° West 392 451 30,700 960 Climbing Houston Center
04:18PM 30.3419 -98.4225 309° West 398 458 31,700 840 Climbing Houston Center
04:19PM 30.4111 -98.5236 308° West 396 456 32,500 1,020 Climbing Houston Center
04:20PM 30.4828 -98.6253 309° West 401 461 33,900 1,200 Climbing Houston Center
04:21PM 30.5522 -98.7264 309° West 397 457 35,100 960 Climbing Houston Center
04:22PM 30.6208 -98.8247 309° West 390 449 36,000 420 Climbing Houston Center
04:23PM 30.7011 -98.9439 308° West 397 457 36,000  Level Houston Center
04:24PM 30.7753 -99.0506 309° West 414 476 36,000  Level Houston Center
04:25PM 30.8456 -99.1528 309° West 425 489 36,000  Level Houston Center
04:26PM 30.9192 -99.2614 308° West 429 494 36,000  Level Houston Center
04:27PM 30.9939 -99.3711 308° West 433 498 36,000  Level Houston Center
04:29PM 31.0819 -99.5011 308° West 428 493 36,000  Level Houston Center
04:30PM 31.1550 -99.6086 308° West 425 489 36,000 -60 Level Houston Center
04:31PM 31.2283 -99.7181 308° West 428 493 35,900  Descending Houston Center
04:32PM 31.3047 -99.8308 308° West 439 505 36,000  Climbing Houston Center
04:33PM 31.3783 -99.9394 308° West 434 499 36,000  Level Houston Center
04:34PM 31.4650 -100.0708 308° West 431 496 36,000 -60 Level Houston Center
04:35PM 31.5386 -100.1811 308° West 429 494 35,900  Descending Houston Center
04:36PM 31.6111 -100.2906 308° West 429 494 36,000  Climbing Houston Center
04:37PM 31.7286 -100.4103 319° Northwest 422 486 36,000  Level Fort Worth Center
04:38PM 31.8333 -100.4869 328° Northwest 429 494 36,000  Level Fort Worth Center
04:39PM 31.9400 -100.5617 329° Northwest 441 507 36,000  Level Fort Worth Center
04:40PM 32.0444 -100.6361 329° Northwest 441 507 36,000  Level Fort Worth Center
04:41PM 32.1511 -100.7136 328° Northwest 447 514 36,000  Level Fort Worth Center
04:42PM 32.2575 -100.7911 328° Northwest 447 514 36,000  Level Fort Worth Center
04:43PM 32.3642 -100.8664 329° Northwest 447 514 36,000  Level Fort Worth Center
04:44PM 32.4686 -100.9419 329° Northwest 447 514 36,000  Level Fort Worth Center
04:45PM 32.5769 -101.0200 329° Northwest 447 514 36,000  Level Fort Worth Center
04:46PM 32.6833 -101.0958 329° Northwest 447 514 36,000  Level Fort Worth Center
04:47PM 32.7894 -101.1744 328° Northwest 447 514 36,000 -720 Level Fort Worth Center
04:48PM 32.8978 -101.2531 329° Northwest 447 514 34,600 -1,620 Descending Fort Worth Center
04:49PM 32.9978 -101.3244 329° Northwest 454 522 32,800 -1,980 Descending Fort Worth Center
04:50PM 33.1183 -101.4089 330° Northwest 454 522 30,700 -2,040 Descending Fort Worth Center
04:51PM 33.2119 -101.4803 327° Northwest 454 522 28,800 -2,220 Descending Fort Worth Center
04:51PM 33.2586 -101.5197 325° Northwest 438 504 27,700 -3,120 Descending Fort Worth Center
04:52PM 33.3261 -101.5650 331° Northwest 444 511 25,700 -3,660 Descending Fort Worth Center
04:52PM 33.3625 -101.5992 322° Northwest 442 509 24,000 -4,140 Descending Fort Worth Center
04:53PM 33.4197 -101.6367 331° Northwest 444 511 21,600 -4,380 Descending Fort Worth Center
04:53PM 33.4750 -101.6617 339° North 456 525 19,600 -4,800 Descending Fort Worth Center
04:54PM 33.5569 -101.6458 North 444 511 16,800 -4,200 Descending Fort Worth Center
04:54PM 33.6033 -101.6381 North 470 541 15,400 -3,300 Descending Fort Worth Center
04:55PM 33.6667 -101.6161 16° North 444 511 13,500 -3,780 Descending Fort Worth Center
04:55PM 33.7275 -101.6042 North 437 503 11,600 -3,120 Descending Fort Worth Center
04:56PM 33.7872 -101.5669 27° Northeast 426 490 10,400 -1,740 Descending Fort Worth Center
04:56PM 33.8033 -101.5153 69° East 385 443 9,900 -720 Descending Fort Worth Center
04:57PM 33.7861 -101.4719 116° Southeast 315 362 9,700 -1,500 Descending Fort Worth Center
04:57PM 33.7422 -101.4700 178° South 275 316 8,400 -2,040 Descending Fort Worth Center
04:58PM 33.7103 -101.4958 214° Southwest 158 182 7,700 -1,200 Descending Fort Worth Center
04:58PM 33.6903 -101.5325 237° Southwest 252 290 7,200 -1,020 Descending Fort Worth Center
04:59PM 33.6808 -101.5644 250° West 201 231 6,700 -1,200 Descending Fort Worth Center
04:59PM 33.6647 -101.6111 247° West 247 284 6,000 -900 Descending Fort Worth Center
05:00PM 33.6633 -101.6508 268° West 239 275 5,800 -480 Descending Fort Worth Center
05:01PM 33.6619 -101.6933 268° West 199 229 5,500 -840 Descending Fort Worth Center
05:01PM 33.6633 -101.7108 275° West 222 255 5,000 -1,260 Descending Fort Worth Center
05:02PM 33.6600 -101.7506 264° West 154 177 4,100 -1,200 Descending Fort Worth Center
05:02PM 33.6614 -101.7656 276° West 178 205 3,800 -780 Descending Fort Worth Center
05:03PM 33.6583 -101.7953 263° West 136 157 3,400 -540 Descending Fort Worth Center
05:03PM 33.6625 -101.7981 331° Northwest 152 175 3,300 7,620 Descending Fort Worth Center
05:04PM 33.6603 -101.8578 267° West 152 175 14,000 5,340 Climbing Fort Worth Center
05:05PM 33.6586 -101.9078 268° West 152 175 14,000  Level Fort Worth Center
05:06PM 33.6567 -101.9575 267° West 152 175 14,000  Level Fort Worth Center
05:08PM 33.6637 -101.8206 86° East  Level Estimated
05:15PM 33.6637 -101.8206 132° Southeast  Level Estimated